createdAt,value
2018-05-09T00:00:02.562Z,18.37
2018-05-09T00:01:02.543Z,18.39
2018-05-09T00:02:02.534Z,18.39
2018-05-09T00:03:02.515Z,18.24
2018-05-09T00:04:02.502Z,18.24
2018-05-09T00:05:02.491Z,18.30
2018-05-09T00:06:02.477Z,18.19
2018-05-09T00:07:02.465Z,18.18
2018-05-09T00:08:02.458Z,18.21
2018-05-09T00:09:02.487Z,18.21
2018-05-09T00:10:02.424Z,18.19
2018-05-09T00:11:02.411Z,18.19
2018-05-09T00:12:02.440Z,18.18
2018-05-09T00:13:02.387Z,18.21
2018-05-09T00:14:02.370Z,18.21
2018-05-09T00:15:02.366Z,18.19
2018-05-09T00:16:02.345Z,18.12
2018-05-09T00:17:02.332Z,18.09
2018-05-09T00:18:02.320Z,18.05
2018-05-09T00:19:02.306Z,18.11
2018-05-09T00:20:02.293Z,18.05
2018-05-09T00:21:02.279Z,18.06
2018-05-09T00:22:02.266Z,18.05
2018-05-09T00:23:02.253Z,17.98
2018-05-09T00:24:02.239Z,18.00
2018-05-09T00:25:02.226Z,18.00
2018-05-09T00:26:02.213Z,17.90
2018-05-09T00:27:02.202Z,17.86
2018-05-09T00:28:02.186Z,17.80
2018-05-09T00:29:02.172Z,17.82
2018-05-09T00:30:02.161Z,17.75
2018-05-09T00:31:02.153Z,17.75
2018-05-09T00:32:02.137Z,17.60
2018-05-09T00:33:02.123Z,17.59
2018-05-09T00:34:02.110Z,17.56
2018-05-09T00:35:02.097Z,17.57
2018-05-09T00:36:02.086Z,17.52
2018-05-09T00:37:02.068Z,17.53
2018-05-09T00:38:02.068Z,17.53
2018-05-09T00:39:02.045Z,17.56
2018-05-09T00:40:02.031Z,17.44
2018-05-09T00:41:02.015Z,17.53
2018-05-09T00:42:02.001Z,17.41
2018-05-09T00:43:02.004Z,17.49
2018-05-09T00:44:01.978Z,17.53
2018-05-09T00:45:01.963Z,17.47
2018-05-09T00:46:01.950Z,17.50
2018-05-09T00:47:01.935Z,17.47
2018-05-09T00:48:01.921Z,17.47
2018-05-09T00:49:01.912Z,17.42
2018-05-09T00:50:02.002Z,17.47
2018-05-09T00:51:01.884Z,17.44
2018-05-09T00:52:01.944Z,17.39
2018-05-09T00:53:01.857Z,17.47
2018-05-09T00:54:01.842Z,17.42
2018-05-09T00:55:01.830Z,17.37
2018-05-09T00:56:01.818Z,17.39
2018-05-09T00:57:01.814Z,17.30
2018-05-09T00:58:01.797Z,17.31
2018-05-09T00:59:01.778Z,17.31
2018-05-09T01:00:01.781Z,17.34
2018-05-09T01:01:01.757Z,17.30
2018-05-09T01:02:01.736Z,17.28
2018-05-09T01:03:01.721Z,17.13
2018-05-09T01:04:01.707Z,17.16
2018-05-09T01:05:01.701Z,17.09
2018-05-09T01:06:01.682Z,17.05
2018-05-09T01:07:01.678Z,16.97
2018-05-09T01:08:01.652Z,16.92
2018-05-09T01:09:01.644Z,16.94
2018-05-09T01:10:01.629Z,16.86
2018-05-09T01:11:01.624Z,16.86
2018-05-09T01:12:01.599Z,16.89
2018-05-09T01:13:01.588Z,16.89
2018-05-09T01:14:01.586Z,16.86
2018-05-09T01:15:01.565Z,16.84
2018-05-09T01:16:01.547Z,16.82
2018-05-09T01:17:01.532Z,16.77
2018-05-09T01:18:01.520Z,16.80
2018-05-09T01:19:01.506Z,16.80
2018-05-09T01:20:01.492Z,16.83
2018-05-09T01:21:01.496Z,16.84
2018-05-09T01:22:01.466Z,16.80
2018-05-09T01:23:01.451Z,16.82
2018-05-09T01:24:01.438Z,16.83
2018-05-09T01:25:01.423Z,16.89
2018-05-09T01:26:01.412Z,16.91
2018-05-09T01:27:01.396Z,16.80
2018-05-09T01:28:01.380Z,16.74
2018-05-09T01:29:01.369Z,16.80
2018-05-09T01:30:01.356Z,16.76
2018-05-09T01:31:01.340Z,16.77
2018-05-09T01:32:01.326Z,16.72
2018-05-09T01:33:01.314Z,16.72
2018-05-09T01:34:01.300Z,16.66
2018-05-09T01:35:01.295Z,16.57
2018-05-09T01:36:01.279Z,16.61
2018-05-09T01:37:01.257Z,16.66
2018-05-09T01:38:01.244Z,16.66
2018-05-09T01:39:01.231Z,16.57
2018-05-09T01:40:01.216Z,16.62
2018-05-09T01:41:01.203Z,16.58
2018-05-09T01:42:01.190Z,16.61
2018-05-09T01:43:01.180Z,16.62
2018-05-09T01:44:01.161Z,16.50
2018-05-09T01:45:01.148Z,16.50
2018-05-09T01:46:01.135Z,16.47
2018-05-09T01:47:01.126Z,16.54
2018-05-09T01:48:01.106Z,16.41
2018-05-09T01:49:01.092Z,16.46
2018-05-09T01:50:01.079Z,16.37
2018-05-09T01:51:01.070Z,16.37
2018-05-09T01:52:01.051Z,16.39
2018-05-09T01:53:01.036Z,16.39
2018-05-09T01:54:01.026Z,16.36
2018-05-09T01:55:01.107Z,16.37
2018-05-09T01:56:00.996Z,16.31
2018-05-09T01:57:00.983Z,16.29
2018-05-09T01:58:00.967Z,16.29
2018-05-09T01:59:00.954Z,16.29
2018-05-09T02:00:00.947Z,16.32
2018-05-09T02:01:00.929Z,16.25
2018-05-09T02:02:00.914Z,16.31
2018-05-09T02:03:00.900Z,16.34
2018-05-09T02:04:00.888Z,16.25
2018-05-09T02:05:00.874Z,16.32
2018-05-09T02:06:00.941Z,16.16
2018-05-09T02:07:00.843Z,16.31
2018-05-09T02:08:00.826Z,16.13
2018-05-09T02:09:00.814Z,16.22
2018-05-09T02:10:00.802Z,16.24
2018-05-09T02:11:00.788Z,16.26
2018-05-09T02:12:00.772Z,16.21
2018-05-09T02:13:00.758Z,16.17
2018-05-09T02:14:00.743Z,16.17
2018-05-09T02:15:00.732Z,16.22
2018-05-09T02:16:00.714Z,16.22
2018-05-09T02:17:00.704Z,16.17
2018-05-09T02:18:00.695Z,16.18
2018-05-09T02:19:00.673Z,16.09
2018-05-09T02:20:00.660Z,16.25
2018-05-09T02:21:00.647Z,16.18
2018-05-09T02:22:00.632Z,16.12
2018-05-09T02:23:00.627Z,16.17
2018-05-09T02:24:00.679Z,16.17
2018-05-09T02:25:00.598Z,16.09
2018-05-09T02:26:00.578Z,16.21
2018-05-09T02:27:00.570Z,16.09
2018-05-09T02:28:00.547Z,16.12
2018-05-09T02:29:00.535Z,16.17
2018-05-09T02:30:00.525Z,16.17
2018-05-09T02:31:00.604Z,16.28
2018-05-09T02:32:00.491Z,16.18
2018-05-09T02:33:00.476Z,16.18
2018-05-09T02:34:00.466Z,16.18
2018-05-09T02:35:00.447Z,16.25
2018-05-09T02:36:00.435Z,16.21
2018-05-09T02:37:00.433Z,16.24
2018-05-09T02:38:00.410Z,16.09
2018-05-09T02:39:00.392Z,16.09
2018-05-09T02:40:00.378Z,16.08
2018-05-09T02:41:00.362Z,15.99
2018-05-09T02:42:00.350Z,15.98
2018-05-09T02:43:00.339Z,16.02
2018-05-09T02:44:00.324Z,15.98
2018-05-09T02:45:00.307Z,16.00
2018-05-09T02:46:00.295Z,15.92
2018-05-09T02:47:00.282Z,15.90
2018-05-09T02:48:00.272Z,15.91
2018-05-09T02:49:00.259Z,15.92
2018-05-09T02:50:00.370Z,15.85
2018-05-09T02:51:00.221Z,15.84
2018-05-09T02:52:00.206Z,15.90
2018-05-09T02:53:01.409Z,15.90
2018-05-09T02:54:00.182Z,15.84
2018-05-09T02:55:00.164Z,15.83
2018-05-09T02:56:00.150Z,15.91
2018-05-09T02:57:00.135Z,15.78
2018-05-09T02:58:00.121Z,15.83
2018-05-09T02:59:00.106Z,15.78
2018-05-09T03:00:00.094Z,15.67
2018-05-09T03:01:00.077Z,15.72
2018-05-09T03:02:00.063Z,15.60
2018-05-09T03:03:00.048Z,15.63
2018-05-09T03:04:00.035Z,15.55
2018-05-09T03:05:00.028Z,15.50
2018-05-09T03:06:00.005Z,15.43
2018-05-09T03:06:59.992Z,15.35
2018-05-09T03:07:59.983Z,15.37
2018-05-09T03:08:59.969Z,15.29
2018-05-09T03:09:59.946Z,15.32
2018-05-09T03:10:59.931Z,15.35
2018-05-09T03:11:59.917Z,15.30
2018-05-09T03:12:59.904Z,15.36
2018-05-09T03:13:59.888Z,15.35
2018-05-09T03:14:59.875Z,15.37
2018-05-09T03:15:59.861Z,15.32
2018-05-09T03:16:59.843Z,15.32
2018-05-09T03:17:59.830Z,15.41
2018-05-09T03:18:59.898Z,15.41
2018-05-09T03:19:59.800Z,15.43
2018-05-09T03:20:59.788Z,15.37
2018-05-09T03:21:59.774Z,15.44
2018-05-09T03:22:59.760Z,15.41
2018-05-09T03:23:59.742Z,15.41
2018-05-09T03:24:59.742Z,15.36
2018-05-09T03:25:59.730Z,15.39
2018-05-09T03:26:59.700Z,15.41
2018-05-09T03:27:59.685Z,15.43
2018-05-09T03:28:59.674Z,15.43
2018-05-09T03:29:59.656Z,15.39
2018-05-09T03:30:59.649Z,15.52
2018-05-09T03:31:59.629Z,15.54
2018-05-09T03:32:59.612Z,15.39
2018-05-09T03:33:59.603Z,15.48
2018-05-09T03:34:59.583Z,15.44
2018-05-09T03:35:59.568Z,15.44
2018-05-09T03:36:59.554Z,15.39
2018-05-09T03:37:59.541Z,15.44
2018-05-09T03:38:59.530Z,15.39
2018-05-09T03:39:59.511Z,15.37
2018-05-09T03:40:59.499Z,15.43
2018-05-09T03:41:59.478Z,15.41
2018-05-09T03:42:59.466Z,15.36
2018-05-09T03:43:59.450Z,15.41
2018-05-09T03:44:59.437Z,15.39
2018-05-09T03:46:02.655Z,15.43
2018-05-09T03:46:59.407Z,15.39
2018-05-09T03:47:59.391Z,15.43
2018-05-09T03:48:59.379Z,15.43
2018-05-09T03:49:59.363Z,15.41
2018-05-09T03:50:59.367Z,15.41
2018-05-09T03:51:59.333Z,15.41
2018-05-09T03:52:59.322Z,15.47
2018-05-09T03:53:59.305Z,15.43
2018-05-09T03:54:59.292Z,15.45
2018-05-09T03:55:59.276Z,15.43
2018-05-09T03:56:59.261Z,15.41
2018-05-09T03:57:59.254Z,15.41
2018-05-09T03:58:59.233Z,15.39
2018-05-09T03:59:59.219Z,15.41
2018-05-09T04:00:59.203Z,15.41
2018-05-09T04:01:59.192Z,15.35
2018-05-09T04:02:59.174Z,15.30
2018-05-09T04:03:59.157Z,15.39
2018-05-09T04:04:59.159Z,15.32
2018-05-09T04:05:59.135Z,15.35
2018-05-09T04:06:59.122Z,15.32
2018-05-09T04:07:59.107Z,15.37
2018-05-09T04:08:59.084Z,15.33
2018-05-09T04:09:59.080Z,15.27
2018-05-09T04:10:59.056Z,15.33
2018-05-09T04:11:59.047Z,15.33
2018-05-09T04:12:59.027Z,15.26
2018-05-09T04:13:59.014Z,15.14
2018-05-09T04:14:58.997Z,15.22
2018-05-09T04:15:58.981Z,15.23
2018-05-09T04:16:58.968Z,15.17
2018-05-09T04:17:58.952Z,15.11
2018-05-09T04:18:58.937Z,15.18
2018-05-09T04:19:58.924Z,15.27
2018-05-09T04:20:58.911Z,15.23
2018-05-09T04:21:58.894Z,15.35
2018-05-09T04:22:58.878Z,15.36
2018-05-09T04:23:58.864Z,15.43
2018-05-09T04:24:58.848Z,15.45
2018-05-09T04:25:58.833Z,15.50
2018-05-09T04:26:58.820Z,15.52
2018-05-09T04:27:58.812Z,15.45
2018-05-09T04:28:58.796Z,15.59
2018-05-09T04:29:58.775Z,15.54
2018-05-09T04:30:58.766Z,15.55
2018-05-09T04:31:58.745Z,15.59
2018-05-09T04:32:58.729Z,15.57
2018-05-09T04:33:58.715Z,15.66
2018-05-09T04:34:58.707Z,15.63
2018-05-09T04:35:58.686Z,15.62
2018-05-09T04:36:58.672Z,15.69
2018-05-09T04:37:58.658Z,15.72
2018-05-09T04:38:58.655Z,15.66
2018-05-09T04:39:58.628Z,15.73
2018-05-09T04:40:58.615Z,15.69
2018-05-09T04:41:58.678Z,15.70
2018-05-09T04:42:58.584Z,15.51
2018-05-09T04:43:58.569Z,15.59
2018-05-09T04:44:58.556Z,15.60
2018-05-09T04:45:58.550Z,15.59
2018-05-09T04:46:58.530Z,15.62
2018-05-09T04:47:58.511Z,15.65
2018-05-09T04:48:58.498Z,15.67
2018-05-09T04:49:58.500Z,15.67
2018-05-09T04:50:58.468Z,15.75
2018-05-09T04:51:58.452Z,15.80
2018-05-09T04:52:58.437Z,15.81
2018-05-09T04:53:58.427Z,15.67
2018-05-09T04:54:58.425Z,15.54
2018-05-09T04:55:58.399Z,15.41
2018-05-09T04:56:58.383Z,15.45
2018-05-09T04:57:58.379Z,15.52
2018-05-09T04:58:58.352Z,15.47
2018-05-09T04:59:58.337Z,15.59
2018-05-09T05:00:58.321Z,15.62
2018-05-09T05:01:58.313Z,15.65
2018-05-09T05:02:58.292Z,15.80
2018-05-09T05:03:58.279Z,15.90
2018-05-09T05:04:58.313Z,15.84
2018-05-09T05:05:58.247Z,15.83
2018-05-09T05:06:58.273Z,15.91
2018-05-09T05:07:58.232Z,16.00
2018-05-09T05:08:58.206Z,16.02
2018-05-09T05:09:58.192Z,16.10
2018-05-09T05:10:58.188Z,16.21
2018-05-09T05:11:58.158Z,16.17
2018-05-09T05:12:58.169Z,16.32
2018-05-09T05:13:58.130Z,16.40
2018-05-09T05:14:58.131Z,16.54
2018-05-09T05:15:58.101Z,16.47
2018-05-09T05:16:58.087Z,16.44
2018-05-09T05:17:58.072Z,16.54
2018-05-09T05:18:58.058Z,16.44
2018-05-09T05:19:58.044Z,16.47
2018-05-09T05:20:58.028Z,16.69
2018-05-09T05:21:58.013Z,16.76
2018-05-09T05:22:58.007Z,16.76
2018-05-09T05:23:57.984Z,16.74
2018-05-09T05:24:57.977Z,16.74
2018-05-09T05:25:57.958Z,16.80
2018-05-09T05:26:57.952Z,17.41
2018-05-09T05:27:57.927Z,18.51
2018-05-09T05:28:57.914Z,19.30
2018-05-09T05:29:57.910Z,20.10
2018-05-09T05:30:57.886Z,20.86
2018-05-09T05:31:57.871Z,21.35
2018-05-09T05:32:57.860Z,21.59
2018-05-09T05:33:57.845Z,21.94
2018-05-09T05:34:57.833Z,22.46
2018-05-09T05:35:57.817Z,22.61
2018-05-09T05:36:57.812Z,22.34
2018-05-09T05:37:57.793Z,22.12
2018-05-09T05:38:57.782Z,22.04
2018-05-09T05:39:57.777Z,22.49
2018-05-09T05:40:57.756Z,22.47
2018-05-09T05:41:57.746Z,22.71
2018-05-09T05:42:57.734Z,23.37
2018-05-09T05:43:57.724Z,23.59
2018-05-09T05:44:57.945Z,23.99
2018-05-09T05:45:57.704Z,23.94
2018-05-09T05:46:57.691Z,23.17
2018-05-09T05:47:57.692Z,22.84
2018-05-09T05:48:57.674Z,23.37
2018-05-09T05:49:57.663Z,23.91
2018-05-09T05:50:57.657Z,23.99
2018-05-09T05:51:57.680Z,24.36
2018-05-09T05:52:57.638Z,24.86
2018-05-09T05:53:57.639Z,25.25
2018-05-09T05:54:57.621Z,25.81
2018-05-09T05:55:57.699Z,25.93
2018-05-09T05:56:57.614Z,26.01
2018-05-09T05:57:57.600Z,26.23
2018-05-09T05:58:57.591Z,26.34
2018-05-09T05:59:57.583Z,26.42
2018-05-09T06:00:57.732Z,26.39
2018-05-09T06:01:57.571Z,25.76
2018-05-09T06:02:57.775Z,26.19
2018-05-09T06:03:57.558Z,26.44
2018-05-09T06:04:57.553Z,26.64
2018-05-09T06:05:57.548Z,26.56
2018-05-09T06:06:57.542Z,26.53
2018-05-09T06:07:57.573Z,26.86
2018-05-09T06:08:57.535Z,27.10
2018-05-09T06:09:57.528Z,27.38
2018-05-09T06:10:57.532Z,27.25
2018-05-09T06:11:57.517Z,26.78
2018-05-09T06:12:57.514Z,26.10
2018-05-09T06:13:57.509Z,26.19
2018-05-09T06:14:57.513Z,25.95
2018-05-09T06:15:57.500Z,25.73
2018-05-09T06:16:57.508Z,25.73
2018-05-09T06:17:57.492Z,25.39
2018-05-09T06:18:57.494Z,25.18
2018-05-09T06:19:57.487Z,24.69
2018-05-09T06:20:57.483Z,24.62
2018-05-09T06:21:57.485Z,24.61
2018-05-09T06:22:57.478Z,24.46
2018-05-09T06:23:57.500Z,24.68
2018-05-09T06:24:57.500Z,24.97
2018-05-09T06:25:57.472Z,25.49
2018-05-09T06:27:41.952Z,26.03
2018-05-09T06:28:41.954Z,25.66
2018-05-09T06:29:41.948Z,25.76
2018-05-09T06:30:41.951Z,24.97
2018-05-09T06:31:41.943Z,24.84
2018-05-09T06:32:41.946Z,24.69
2018-05-09T06:33:41.936Z,24.59
2018-05-09T06:34:41.933Z,24.34
2018-05-09T06:35:41.933Z,24.07
2018-05-09T06:36:41.929Z,23.89
2018-05-09T06:37:42.034Z,23.64
2018-05-09T06:38:41.923Z,23.40
2018-05-09T06:39:41.923Z,23.16
2018-05-09T06:40:41.916Z,23.01
2018-05-09T06:41:41.989Z,23.23
2018-05-09T06:42:41.916Z,23.18
2018-05-09T06:43:41.977Z,23.20
2018-05-09T06:44:41.909Z,23.08
2018-05-09T06:45:41.910Z,23.07
2018-05-09T06:46:41.905Z,23.01
2018-05-09T06:47:41.902Z,22.91
2018-05-09T06:48:41.901Z,23.13
2018-05-09T06:49:41.902Z,22.92
2018-05-09T06:50:41.893Z,22.95
2018-05-09T06:51:41.909Z,22.84
2018-05-09T06:52:41.895Z,23.06
2018-05-09T06:53:41.885Z,22.91
2018-05-09T06:54:41.881Z,22.84
2018-05-09T06:55:41.879Z,22.83
2018-05-09T06:56:41.873Z,22.84
2018-05-09T06:57:41.867Z,23.13
2018-05-09T06:58:41.865Z,23.10
2018-05-09T06:59:41.863Z,23.25
2018-05-09T07:00:41.856Z,23.39
2018-05-09T07:01:41.863Z,23.17
2018-05-09T07:02:41.843Z,23.08
2018-05-09T07:03:41.844Z,23.01
2018-05-09T07:04:41.832Z,22.93
2018-05-09T07:05:41.827Z,22.92
2018-05-09T07:06:42.280Z,22.93
2018-05-09T07:07:41.818Z,22.92
2018-05-09T07:08:41.817Z,22.92
2018-05-09T07:09:41.858Z,23.07
2018-05-09T07:10:41.796Z,23.23
2018-05-09T07:11:41.796Z,23.29
2018-05-09T07:12:41.897Z,23.36
2018-05-09T07:13:41.790Z,23.39
2018-05-09T07:14:41.770Z,23.52
2018-05-09T07:15:41.766Z,23.39
2018-05-09T07:16:41.759Z,23.40
2018-05-09T07:17:41.752Z,23.33
2018-05-09T07:18:41.746Z,23.39
2018-05-09T07:19:41.737Z,23.47
2018-05-09T07:20:41.738Z,23.49
2018-05-09T07:21:41.725Z,23.74
2018-05-09T07:22:41.720Z,23.88
2018-05-09T07:23:41.712Z,23.99
2018-05-09T07:24:41.705Z,23.91
2018-05-09T07:25:41.696Z,23.82
2018-05-09T07:26:41.693Z,23.64
2018-05-09T07:27:44.971Z,23.79
2018-05-09T07:28:41.678Z,23.85
2018-05-09T07:29:41.671Z,23.64
2018-05-09T07:30:41.672Z,23.79
2018-05-09T07:31:41.656Z,23.91
2018-05-09T07:32:41.653Z,24.04
2018-05-09T07:33:41.642Z,24.09
2018-05-09T07:34:41.641Z,24.18
2018-05-09T07:35:41.627Z,24.36
2018-05-09T07:36:41.622Z,24.68
2018-05-09T07:37:41.621Z,24.88
2018-05-09T07:38:41.604Z,24.99
2018-05-09T07:39:41.599Z,25.41
2018-05-09T07:40:41.589Z,25.49
2018-05-09T07:41:41.589Z,25.62
2018-05-09T07:42:41.576Z,25.22
2018-05-09T07:43:41.564Z,25.15
2018-05-09T07:44:41.557Z,25.01
2018-05-09T07:45:41.547Z,24.85
2018-05-09T07:46:41.545Z,24.63
2018-05-09T07:47:41.609Z,24.65
2018-05-09T07:48:41.527Z,24.65
2018-05-09T07:49:41.520Z,24.68
2018-05-09T07:50:41.517Z,24.71
2018-05-09T07:51:41.706Z,24.46
2018-05-09T07:52:41.648Z,24.25
2018-05-09T07:53:41.491Z,24.14
2018-05-09T07:54:41.484Z,24.38
2018-05-09T07:55:41.476Z,24.62
2018-05-09T07:56:41.471Z,24.68
2018-05-09T07:57:41.523Z,24.75
2018-05-09T07:58:41.450Z,24.86
2018-05-09T07:59:41.441Z,24.78
2018-05-09T08:00:41.443Z,24.86
2018-05-09T08:01:41.426Z,24.89
2018-05-09T08:02:41.422Z,24.79
2018-05-09T08:03:41.421Z,24.86
2018-05-09T08:04:41.418Z,24.94
2018-05-09T08:05:41.397Z,25.22
2018-05-09T08:06:41.400Z,24.97
2018-05-09T08:07:41.380Z,25.19
2018-05-09T08:08:41.384Z,24.84
2018-05-09T08:09:41.369Z,24.74
2018-05-09T08:10:41.365Z,24.66
2018-05-09T08:11:41.353Z,24.55
2018-05-09T08:12:41.344Z,24.40
2018-05-09T08:13:41.341Z,24.26
2018-05-09T08:14:41.330Z,24.47
2018-05-09T08:15:41.319Z,24.61
2018-05-09T08:16:41.314Z,24.79
2018-05-09T08:17:41.304Z,24.94
2018-05-09T08:18:41.307Z,24.85
2018-05-09T08:19:41.289Z,24.88
2018-05-09T08:20:41.281Z,24.92
2018-05-09T08:21:41.274Z,25.01
2018-05-09T08:22:41.264Z,24.93
2018-05-09T08:23:41.289Z,24.96
2018-05-09T08:24:41.333Z,25.01
2018-05-09T08:25:41.243Z,25.00
2018-05-09T08:26:41.240Z,25.18
2018-05-09T08:27:41.222Z,25.16
2018-05-09T08:28:41.215Z,25.30
2018-05-09T08:29:41.208Z,25.41
2018-05-09T08:30:41.198Z,25.36
2018-05-09T08:31:41.190Z,25.36
2018-05-09T08:32:41.184Z,25.37
2018-05-09T08:33:41.182Z,25.22
2018-05-09T08:34:41.184Z,25.15
2018-05-09T08:35:41.158Z,25.26
2018-05-09T08:36:41.154Z,24.93
2018-05-09T08:37:41.228Z,24.81
2018-05-09T08:38:41.152Z,25.01
2018-05-09T08:39:41.127Z,25.12
2018-05-09T08:40:41.117Z,25.31
2018-05-09T08:41:41.116Z,25.26
2018-05-09T08:42:41.100Z,25.37
2018-05-09T08:43:41.305Z,25.52
2018-05-09T08:44:41.083Z,25.63
2018-05-09T08:45:41.078Z,25.74
2018-05-09T08:46:41.084Z,25.74
2018-05-09T08:47:41.064Z,25.93
2018-05-09T08:48:41.057Z,25.76
2018-05-09T08:49:41.044Z,25.80
2018-05-09T08:50:41.032Z,25.95
2018-05-09T08:51:41.024Z,26.07
2018-05-09T08:52:41.015Z,25.92
2018-05-09T08:53:41.010Z,26.01
2018-05-09T08:54:40.999Z,26.23
2018-05-09T08:55:40.990Z,26.37
2018-05-09T08:56:40.982Z,26.36
2018-05-09T08:57:40.973Z,26.29
2018-05-09T08:58:40.973Z,26.53
2018-05-09T08:59:40.964Z,26.44
2018-05-09T09:00:40.955Z,26.07
2018-05-09T09:01:40.939Z,25.67
2018-05-09T09:02:40.932Z,26.46
2018-05-09T09:03:40.922Z,26.81
2018-05-09T09:04:40.934Z,27.33
2018-05-09T09:05:40.916Z,28.10
2018-05-09T09:06:40.898Z,28.22
2018-05-09T09:07:40.891Z,28.50
2018-05-09T09:08:40.883Z,28.65
2018-05-09T09:09:41.277Z,28.59
2018-05-09T09:10:40.866Z,28.80
2018-05-09T09:11:40.857Z,28.28
2018-05-09T09:12:40.852Z,28.53
2018-05-09T09:13:40.842Z,28.18
2018-05-09T09:14:40.844Z,28.19
2018-05-09T09:15:40.838Z,28.16
2018-05-09T09:16:40.821Z,28.09
2018-05-09T09:17:40.819Z,28.18
2018-05-09T09:18:40.852Z,28.19
2018-05-09T09:19:40.801Z,28.15
2018-05-09T09:20:40.794Z,28.13
2018-05-09T09:21:40.788Z,27.78
2018-05-09T09:22:40.784Z,27.88
2018-05-09T09:23:40.780Z,28.03
2018-05-09T09:24:40.783Z,28.15
2018-05-09T09:25:40.766Z,27.94
2018-05-09T09:26:40.759Z,27.91
2018-05-09T09:27:40.752Z,27.88
2018-05-09T09:28:40.746Z,27.76
2018-05-09T09:29:40.742Z,27.85
2018-05-09T09:30:40.750Z,27.91
2018-05-09T09:31:40.741Z,28.08
2018-05-09T09:32:40.735Z,28.00
2018-05-09T09:33:40.727Z,28.30
2018-05-09T09:34:40.714Z,28.53
2018-05-09T09:35:40.718Z,28.93
2018-05-09T09:36:40.703Z,29.59
2018-05-09T09:37:40.706Z,29.99
2018-05-09T09:38:40.692Z,30.35
2018-05-09T09:39:40.686Z,30.71
2018-05-09T09:40:40.679Z,31.08
2018-05-09T09:41:40.691Z,31.29
2018-05-09T09:42:40.671Z,31.45
2018-05-09T09:43:40.664Z,31.77
2018-05-09T09:44:40.665Z,32.11
2018-05-09T09:45:40.658Z,32.41
2018-05-09T09:46:40.659Z,32.22
2018-05-09T09:47:40.655Z,32.07
2018-05-09T09:48:40.652Z,32.54
2018-05-09T09:49:40.652Z,32.81
2018-05-09T09:50:40.731Z,32.20
2018-05-09T09:51:40.650Z,32.60
2018-05-09T09:52:40.652Z,32.45
2018-05-09T09:53:40.662Z,32.11
2018-05-09T09:54:40.655Z,32.57
2018-05-09T09:55:40.655Z,32.81
2018-05-09T09:56:40.659Z,32.97
2018-05-09T09:57:40.712Z,32.79
2018-05-09T09:58:40.663Z,32.72
2018-05-09T09:59:40.665Z,32.26
2018-05-09T10:00:40.668Z,32.11
2018-05-09T10:01:40.687Z,32.34
2018-05-09T10:02:40.682Z,32.15
2018-05-09T10:03:40.680Z,32.37
2018-05-09T10:04:40.683Z,32.17
2018-05-09T10:05:40.688Z,32.02
2018-05-09T10:06:40.694Z,32.04
2018-05-09T10:07:40.697Z,32.29
2018-05-09T10:08:40.709Z,32.31
2018-05-09T10:09:40.706Z,32.20
2018-05-09T10:10:40.721Z,32.35
2018-05-09T10:11:40.717Z,32.64
2018-05-09T10:12:40.725Z,32.78
2018-05-09T10:13:40.733Z,32.73
2018-05-09T10:14:40.739Z,32.24
2018-05-09T10:15:40.741Z,32.48
2018-05-09T10:16:40.747Z,32.54
2018-05-09T10:17:40.755Z,32.79
2018-05-09T10:18:40.767Z,31.73
2018-05-09T10:19:40.777Z,31.22
2018-05-09T10:20:40.781Z,31.74
2018-05-09T10:21:40.778Z,31.98
2018-05-09T10:22:40.787Z,32.02
2018-05-09T10:23:40.791Z,32.51
2018-05-09T10:24:40.801Z,32.38
2018-05-09T10:25:40.816Z,32.75
2018-05-09T10:26:40.812Z,32.93
2018-05-09T10:27:40.819Z,33.23
2018-05-09T10:28:40.835Z,33.08
2018-05-09T10:29:40.837Z,33.20
2018-05-09T10:30:40.842Z,33.17
2018-05-09T10:31:40.848Z,33.65
2018-05-09T10:32:40.864Z,33.58
2018-05-09T10:33:40.871Z,32.64
2018-05-09T10:34:40.869Z,32.41
2018-05-09T10:35:40.876Z,32.63
2018-05-09T10:36:40.886Z,32.60
2018-05-09T10:37:40.893Z,32.59
2018-05-09T10:38:41.053Z,32.82
2018-05-09T10:39:40.907Z,32.98
2018-05-09T10:40:40.917Z,32.97
2018-05-09T10:41:40.927Z,33.16
2018-05-09T10:42:40.933Z,32.24
2018-05-09T10:43:40.945Z,31.95
2018-05-09T10:44:40.946Z,32.12
2018-05-09T10:45:40.954Z,32.11
2018-05-09T10:46:40.962Z,32.08
2018-05-09T10:47:40.982Z,32.09
2018-05-09T10:48:40.984Z,31.92
2018-05-09T10:49:40.996Z,31.90
2018-05-09T10:50:40.998Z,31.45
2018-05-09T10:51:41.006Z,31.72
2018-05-09T10:52:41.016Z,31.72
2018-05-09T10:53:41.018Z,31.77
2018-05-09T10:54:41.025Z,31.36
2018-05-09T10:55:41.029Z,31.07
2018-05-09T10:56:41.037Z,31.07
2018-05-09T10:57:41.054Z,31.33
2018-05-09T10:58:41.050Z,31.48
2018-05-09T10:59:41.058Z,31.74
2018-05-09T11:00:41.067Z,32.24
2018-05-09T11:01:41.079Z,32.66
2018-05-09T11:02:41.077Z,32.82
2018-05-09T11:03:41.085Z,32.97
2018-05-09T11:04:41.090Z,32.56
2018-05-09T11:05:41.098Z,32.73
2018-05-09T11:06:41.104Z,32.61
2018-05-09T11:07:41.110Z,32.29
2018-05-09T11:08:41.116Z,32.44
2018-05-09T11:09:41.128Z,32.67
2018-05-09T11:10:41.149Z,31.35
2018-05-09T11:11:41.146Z,30.99
2018-05-09T11:12:41.153Z,30.73
2018-05-09T11:13:41.152Z,31.30
2018-05-09T11:14:41.165Z,31.44
2018-05-09T11:15:41.170Z,31.22
2018-05-09T11:16:41.226Z,31.32
2018-05-09T11:17:41.255Z,31.73
2018-05-09T11:18:41.202Z,32.11
2018-05-09T11:19:41.191Z,32.26
2018-05-09T11:20:41.216Z,32.37
2018-05-09T11:21:41.206Z,31.78
2018-05-09T11:22:41.217Z,31.13
2018-05-09T11:23:41.223Z,31.60
2018-05-09T11:24:41.323Z,30.78
2018-05-09T11:25:41.230Z,31.26
2018-05-09T11:26:41.343Z,30.59
2018-05-09T11:27:41.241Z,31.25
2018-05-09T11:28:41.253Z,31.70
2018-05-09T11:29:41.256Z,31.37
2018-05-09T11:30:41.259Z,31.02
2018-05-09T11:31:41.266Z,30.16
2018-05-09T11:32:41.330Z,30.71
2018-05-09T11:33:41.357Z,30.51
2018-05-09T11:34:41.300Z,31.07
2018-05-09T11:35:41.290Z,30.44
2018-05-09T11:36:41.301Z,30.70
2018-05-09T11:37:41.303Z,30.35
2018-05-09T11:38:41.305Z,30.52
2018-05-09T11:39:41.306Z,30.39
2018-05-09T11:40:41.312Z,30.55
2018-05-09T11:41:41.316Z,30.62
2018-05-09T11:42:41.330Z,30.78
2018-05-09T11:43:41.336Z,31.14
2018-05-09T11:44:41.332Z,30.01
2018-05-09T11:45:41.340Z,29.92
2018-05-09T11:46:41.339Z,30.49
2018-05-09T11:47:41.341Z,30.91
2018-05-09T11:48:41.346Z,31.47
2018-05-09T11:49:41.343Z,31.20
2018-05-09T11:50:41.348Z,31.36
2018-05-09T11:51:41.353Z,31.41
2018-05-09T11:52:41.355Z,31.32
2018-05-09T11:53:41.351Z,31.00
2018-05-09T11:54:41.363Z,30.81
2018-05-09T11:55:41.351Z,30.56
2018-05-09T11:56:41.356Z,30.52
2018-05-09T11:57:41.359Z,30.44
2018-05-09T11:58:41.358Z,30.24
2018-05-09T11:59:41.356Z,29.96
2018-05-09T12:00:41.372Z,29.94
2018-05-09T12:01:41.360Z,29.52
2018-05-09T12:02:41.372Z,29.53
2018-05-09T12:03:41.356Z,29.37
2018-05-09T12:04:41.361Z,29.59
2018-05-09T12:05:41.354Z,29.59
2018-05-09T12:06:41.348Z,29.25
2018-05-09T12:07:41.350Z,28.96
2018-05-09T12:08:41.343Z,29.06
2018-05-09T12:09:41.343Z,29.15
2018-05-09T12:10:41.463Z,28.74
2018-05-09T12:11:41.335Z,28.60
2018-05-09T12:12:41.333Z,28.80
2018-05-09T12:13:41.333Z,28.90
2018-05-09T12:14:41.329Z,29.02
2018-05-09T12:15:41.325Z,29.21
2018-05-09T12:16:41.322Z,29.34
2018-05-09T12:17:41.317Z,29.58
2018-05-09T12:18:41.317Z,29.81
2018-05-09T12:19:41.321Z,29.74
2018-05-09T12:20:41.316Z,29.40
2018-05-09T12:21:41.303Z,29.25
2018-05-09T12:22:41.298Z,28.96
2018-05-09T12:23:41.314Z,28.90
2018-05-09T12:24:41.389Z,28.77
2018-05-09T12:25:41.287Z,28.77
2018-05-09T12:26:41.286Z,29.06
2018-05-09T12:27:41.282Z,29.32
2018-05-09T12:28:41.276Z,29.25
2018-05-09T12:29:41.282Z,29.13
2018-05-09T12:30:41.285Z,29.16
2018-05-09T12:31:41.259Z,28.94
2018-05-09T12:32:41.255Z,29.05
2018-05-09T12:33:41.250Z,28.97
2018-05-09T12:34:41.244Z,28.64
2018-05-09T12:35:41.246Z,28.77
2018-05-09T12:36:41.243Z,28.93
2018-05-09T12:37:41.343Z,28.97
2018-05-09T12:38:41.225Z,29.00
2018-05-09T12:39:41.221Z,28.96
2018-05-09T12:40:41.223Z,29.00
2018-05-09T12:41:41.215Z,29.02
2018-05-09T12:42:41.204Z,29.20
2018-05-09T12:43:41.206Z,29.22
2018-05-09T12:44:41.200Z,29.05
2018-05-09T12:45:41.188Z,29.05
2018-05-09T12:46:41.181Z,28.92
2018-05-09T12:47:41.176Z,28.86
2018-05-09T12:48:41.259Z,28.59
2018-05-09T12:49:41.165Z,28.37
2018-05-09T12:50:41.163Z,28.67
2018-05-09T12:51:41.153Z,28.64
2018-05-09T12:52:41.147Z,28.68